sensor_id;sensor_type;location;lat;lon;timestamp;P1;durP1;ratioP1;P2;durP2;ratioP2
72974;SDS011;61166;54.228;37.632;2022-07-23T00:00:11;12.27;;;7.45;;
72974;SDS011;61166;54.228;37.632;2022-07-23T00:02:37;9.20;;;7.10;;
72974;SDS011;61166;54.228;37.632;2022-07-23T00:05:03;12.40;;;7.23;;
72974;SDS011;61166;54.228;37.632;2022-07-23T00:07:29;10.30;;;6.93;;
72974;SDS011;61166;54.228;37.632;2022-07-23T00:09:54;8.60;;;6.90;;
72974;SDS011;61166;54.228;37.632;2022-07-23T00:12:20;9.07;;;7.03;;
72974;SDS011;61166;54.228;37.632;2022-07-23T00:14:45;8.65;;;6.53;;
72974;SDS011;61166;54.228;37.632;2022-07-23T00:17:11;10.20;;;6.67;;
72974;SDS011;61166;54.228;37.632;2022-07-23T00:19:36;10.20;;;6.93;;
72974;SDS011;61166;54.228;37.632;2022-07-23T00:22:01;8.70;;;6.67;;
72974;SDS011;61166;54.228;37.632;2022-07-23T00:24:27;10.50;;;7.20;;
72974;SDS011;61166;54.228;37.632;2022-07-23T00:26:52;9.20;;;6.93;;
72974;SDS011;61166;54.228;37.632;2022-07-23T00:29:18;10.27;;;7.00;;
72974;SDS011;61166;54.228;37.632;2022-07-23T00:31:43;13.23;;;7.30;;
72974;SDS011;61166;54.228;37.632;2022-07-23T00:34:08;12.80;;;7.77;;
72974;SDS011;61166;54.228;37.632;2022-07-23T00:36:34;10.23;;;7.30;;
72974;SDS011;61166;54.228;37.632;2022-07-23T00:38:59;10.32;;;7.63;;
72974;SDS011;61166;54.228;37.632;2022-07-23T00:41:25;9.83;;;7.60;;
72974;SDS011;61166;54.228;37.632;2022-07-23T00:43:50;14.23;;;7.40;;
72974;SDS011;61166;54.228;37.632;2022-07-23T00:46:21;11.57;;;7.40;;
72974;SDS011;61166;54.228;37.632;2022-07-23T00:48:48;8.07;;;7.10;;
72974;SDS011;61166;54.228;37.632;2022-07-23T00:51:16;8.85;;;7.15;;
72974;SDS011;61166;54.228;37.632;2022-07-23T00:53:42;11.73;;;7.53;;
72974;SDS011;61166;54.228;37.632;2022-07-23T00:56:09;10.73;;;7.37;;
72974;SDS011;61166;54.228;37.632;2022-07-23T00:58:35;10.75;;;6.63;;
72974;SDS011;61166;54.228;37.632;2022-07-23T01:01:01;8.82;;;6.82;;
72974;SDS011;61166;54.228;37.632;2022-07-23T01:03:27;9.33;;;6.40;;
72974;SDS011;61166;54.228;37.632;2022-07-23T01:05:52;9.43;;;7.07;;
72974;SDS011;61166;54.228;37.632;2022-07-23T01:08:18;9.88;;;7.25;;
72974;SDS011;61166;54.228;37.632;2022-07-23T01:10:45;11.87;;;7.23;;
72974;SDS011;61166;54.228;37.632;2022-07-23T01:13:13;12.30;;;7.25;;
72974;SDS011;61166;54.228;37.632;2022-07-23T01:15:38;12.10;;;6.63;;
72974;SDS011;61166;54.228;37.632;2022-07-23T01:18:04;15.50;;;6.90;;
72974;SDS011;61166;54.228;37.632;2022-07-23T01:20:31;10.45;;;6.88;;
72974;SDS011;61166;54.228;37.632;2022-07-23T01:22:57;9.93;;;6.87;;
72974;SDS011;61166;54.228;37.632;2022-07-23T01:25:23;10.02;;;6.72;;
72974;SDS011;61166;54.228;37.632;2022-07-23T01:27:49;9.60;;;6.85;;
72974;SDS011;61166;54.228;37.632;2022-07-23T01:30:17;10.35;;;6.90;;
72974;SDS011;61166;54.228;37.632;2022-07-23T01:32:42;9.40;;;6.77;;
72974;SDS011;61166;54.228;37.632;2022-07-23T01:35:08;10.03;;;7.03;;
72974;SDS011;61166;54.228;37.632;2022-07-23T01:37:34;10.27;;;6.45;;
72974;SDS011;61166;54.228;37.632;2022-07-23T01:40:00;9.70;;;6.70;;
72974;SDS011;61166;54.228;37.632;2022-07-23T01:42:26;9.70;;;7.10;;
72974;SDS011;61166;54.228;37.632;2022-07-23T01:44:51;9.60;;;6.33;;
72974;SDS011;61166;54.228;37.632;2022-07-23T01:47:17;9.15;;;6.25;;
72974;SDS011;61166;54.228;37.632;2022-07-23T01:49:43;9.20;;;6.27;;
72974;SDS011;61166;54.228;37.632;2022-07-23T01:52:08;10.63;;;6.97;;
72974;SDS011;61166;54.228;37.632;2022-07-23T01:54:36;10.17;;;7.03;;
72974;SDS011;61166;54.228;37.632;2022-07-23T01:57:02;9.57;;;6.70;;
72974;SDS011;61166;54.228;37.632;2022-07-23T01:59:28;8.10;;;6.63;;
72974;SDS011;61166;54.228;37.632;2022-07-23T02:01:54;8.82;;;6.18;;
72974;SDS011;61166;54.228;37.632;2022-07-23T02:04:21;8.88;;;6.95;;
72974;SDS011;61166;54.228;37.632;2022-07-23T02:06:47;7.93;;;6.47;;
72974;SDS011;61166;54.228;37.632;2022-07-23T02:09:12;10.80;;;6.90;;
72974;SDS011;61166;54.228;37.632;2022-07-23T02:11:38;10.60;;;6.83;;
72974;SDS011;61166;54.228;37.632;2022-07-23T02:14:04;8.10;;;7.23;;
72974;SDS011;61166;54.228;37.632;2022-07-23T02:16:29;11.63;;;7.55;;
72974;SDS011;61166;54.228;37.632;2022-07-23T02:18:54;8.77;;;6.40;;
72974;SDS011;61166;54.228;37.632;2022-07-23T02:21:20;7.67;;;6.60;;
72974;SDS011;61166;54.228;37.632;2022-07-23T02:23:45;9.33;;;6.40;;
72974;SDS011;61166;54.228;37.632;2022-07-23T02:26:11;9.35;;;6.65;;
72974;SDS011;61166;54.228;37.632;2022-07-23T02:28:36;7.73;;;6.93;;
72974;SDS011;61166;54.228;37.632;2022-07-23T02:31:02;10.23;;;7.20;;
72974;SDS011;61166;54.228;37.632;2022-07-23T02:33:28;8.98;;;7.03;;
72974;SDS011;61166;54.228;37.632;2022-07-23T02:35:54;9.03;;;7.37;;
72974;SDS011;61166;54.228;37.632;2022-07-23T02:38:19;10.20;;;7.75;;
72974;SDS011;61166;54.228;37.632;2022-07-23T02:40:45;10.30;;;7.40;;
72974;SDS011;61166;54.228;37.632;2022-07-23T02:43:10;7.73;;;6.93;;
72974;SDS011;61166;54.228;37.632;2022-07-23T02:45:35;9.50;;;8.33;;
72974;SDS011;61166;54.228;37.632;2022-07-23T02:48:01;11.63;;;7.50;;
72974;SDS011;61166;54.228;37.632;2022-07-23T02:50:26;9.90;;;8.53;;
72974;SDS011;61166;54.228;37.632;2022-07-23T02:52:52;9.50;;;8.70;;
72974;SDS011;61166;54.228;37.632;2022-07-23T02:55:17;11.83;;;9.00;;
72974;SDS011;61166;54.228;37.632;2022-07-23T02:57:42;9.43;;;8.38;;
72974;SDS011;61166;54.228;37.632;2022-07-23T03:00:08;9.57;;;8.77;;
72974;SDS011;61166;54.228;37.632;2022-07-23T03:02:34;10.57;;;9.52;;
72974;SDS011;61166;54.228;37.632;2022-07-23T03:04:59;10.30;;;9.30;;
72974;SDS011;61166;54.228;37.632;2022-07-23T03:07:25;11.17;;;9.87;;
72974;SDS011;61166;54.228;37.632;2022-07-23T03:09:50;10.02;;;9.07;;
72974;SDS011;61166;54.228;37.632;2022-07-23T03:12:16;10.33;;;9.37;;
72974;SDS011;61166;54.228;37.632;2022-07-23T03:14:41;10.47;;;9.43;;
72974;SDS011;61166;54.228;37.632;2022-07-23T03:17:07;11.40;;;10.30;;
72974;SDS011;61166;54.228;37.632;2022-07-23T03:19:33;12.13;;;10.95;;
72974;SDS011;61166;54.228;37.632;2022-07-23T03:21:58;11.50;;;10.50;;
72974;SDS011;61166;54.228;37.632;2022-07-23T03:24:24;12.07;;;11.07;;
72974;SDS011;61166;54.228;37.632;2022-07-23T03:27:09;11.50;;;10.37;;
72974;SDS011;61166;54.228;37.632;2022-07-23T03:29:34;11.85;;;10.75;;
72974;SDS011;61166;54.228;37.632;2022-07-23T03:32:02;11.70;;;10.53;;
72974;SDS011;61166;54.228;37.632;2022-07-23T03:34:28;11.65;;;10.75;;
72974;SDS011;61166;54.228;37.632;2022-07-23T03:36:53;12.73;;;11.77;;
72974;SDS011;61166;54.228;37.632;2022-07-23T03:39:19;13.10;;;12.00;;
72974;SDS011;61166;54.228;37.632;2022-07-23T03:41:44;13.47;;;12.23;;
72974;SDS011;61166;54.228;37.632;2022-07-23T03:44:09;13.53;;;12.43;;
72974;SDS011;61166;54.228;37.632;2022-07-23T03:46:35;14.97;;;13.70;;
72974;SDS011;61166;54.228;37.632;2022-07-23T03:49:00;13.50;;;12.47;;
72974;SDS011;61166;54.228;37.632;2022-07-23T03:51:26;14.52;;;13.43;;
72974;SDS011;61166;54.228;37.632;2022-07-23T03:53:51;15.30;;;14.20;;
72974;SDS011;61166;54.228;37.632;2022-07-23T03:56:16;12.63;;;11.63;;
72974;SDS011;61166;54.228;37.632;2022-07-23T03:58:42;13.17;;;12.13;;
72974;SDS011;61166;54.228;37.632;2022-07-23T04:01:07;13.50;;;12.30;;
72974;SDS011;61166;54.228;37.632;2022-07-23T04:03:33;15.38;;;14.18;;
72974;SDS011;61166;54.228;37.632;2022-07-23T04:05:58;16.90;;;15.50;;
72974;SDS011;61166;54.228;37.632;2022-07-23T04:08:23;15.87;;;14.73;;
72974;SDS011;61166;54.228;37.632;2022-07-23T04:10:50;16.35;;;14.90;;
72974;SDS011;61166;54.228;37.632;2022-07-23T04:13:15;14.90;;;13.70;;
72974;SDS011;61166;54.228;37.632;2022-07-23T04:15:41;15.70;;;14.37;;
72974;SDS011;61166;54.228;37.632;2022-07-23T04:18:06;17.13;;;15.73;;
72974;SDS011;61166;54.228;37.632;2022-07-23T04:20:32;16.58;;;15.07;;
72974;SDS011;61166;54.228;37.632;2022-07-23T04:22:58;16.70;;;15.20;;
72974;SDS011;61166;54.228;37.632;2022-07-23T04:25:23;16.57;;;15.37;;
72974;SDS011;61166;54.228;37.632;2022-07-23T04:27:49;16.08;;;14.98;;
72974;SDS011;61166;54.228;37.632;2022-07-23T04:30:14;16.53;;;15.40;;
72974;SDS011;61166;54.228;37.632;2022-07-23T04:32:39;16.20;;;15.10;;
72974;SDS011;61166;54.228;37.632;2022-07-23T04:35:05;14.57;;;13.67;;
72974;SDS011;61166;54.228;37.632;2022-07-23T04:37:31;16.05;;;14.95;;
72974;SDS011;61166;54.228;37.632;2022-07-23T04:39:56;14.83;;;13.80;;
72974;SDS011;61166;54.228;37.632;2022-07-23T04:42:21;15.30;;;14.23;;
72974;SDS011;61166;54.228;37.632;2022-07-23T04:44:47;14.90;;;13.90;;
72974;SDS011;61166;54.228;37.632;2022-07-23T04:47:12;14.70;;;13.50;;
72974;SDS011;61166;54.228;37.632;2022-07-23T04:49:37;15.63;;;14.53;;
72974;SDS011;61166;54.228;37.632;2022-07-23T04:52:03;14.40;;;13.40;;
72974;SDS011;61166;54.228;37.632;2022-07-23T04:54:29;16.30;;;15.18;;
72974;SDS011;61166;54.228;37.632;2022-07-23T04:56:54;15.10;;;13.90;;
72974;SDS011;61166;54.228;37.632;2022-07-23T04:59:20;17.50;;;16.13;;
72974;SDS011;61166;54.228;37.632;2022-07-23T05:01:45;15.40;;;14.35;;
72974;SDS011;61166;54.228;37.632;2022-07-23T05:04:10;15.70;;;14.60;;
72974;SDS011;61166;54.228;37.632;2022-07-23T05:06:36;15.30;;;14.27;;
72974;SDS011;61166;54.228;37.632;2022-07-23T05:09:01;14.93;;;14.03;;
72974;SDS011;61166;54.228;37.632;2022-07-23T05:11:27;17.40;;;16.35;;
72974;SDS011;61166;54.228;37.632;2022-07-23T05:13:52;16.13;;;14.83;;
72974;SDS011;61166;54.228;37.632;2022-07-23T05:16:18;16.07;;;14.97;;
72974;SDS011;61166;54.228;37.632;2022-07-23T05:18:43;15.23;;;14.13;;
72974;SDS011;61166;54.228;37.632;2022-07-23T05:21:08;13.93;;;12.93;;
72974;SDS011;61166;54.228;37.632;2022-07-23T05:23:34;16.70;;;15.57;;
72974;SDS011;61166;54.228;37.632;2022-07-23T05:25:59;13.57;;;12.53;;
72974;SDS011;61166;54.228;37.632;2022-07-23T05:28:25;14.83;;;13.93;;
72974;SDS011;61166;54.228;37.632;2022-07-23T05:30:50;14.50;;;13.57;;
72974;SDS011;61166;54.228;37.632;2022-07-23T05:33:17;14.73;;;13.63;;
72974;SDS011;61166;54.228;37.632;2022-07-23T05:35:44;14.65;;;13.32;;
72974;SDS011;61166;54.228;37.632;2022-07-23T05:38:09;16.03;;;14.77;;
72974;SDS011;61166;54.228;37.632;2022-07-23T05:40:35;15.43;;;14.37;;
72974;SDS011;61166;54.228;37.632;2022-07-23T05:43:00;16.00;;;14.93;;
72974;SDS011;61166;54.228;37.632;2022-07-23T05:45:25;13.88;;;12.98;;
72974;SDS011;61166;54.228;37.632;2022-07-23T05:47:51;13.90;;;12.90;;
72974;SDS011;61166;54.228;37.632;2022-07-23T05:50:16;15.67;;;14.47;;
72974;SDS011;61166;54.228;37.632;2022-07-23T05:52:42;13.97;;;12.87;;
72974;SDS011;61166;54.228;37.632;2022-07-23T05:55:08;16.67;;;15.25;;
72974;SDS011;61166;54.228;37.632;2022-07-23T05:57:35;12.55;;;11.68;;
72974;SDS011;61166;54.228;37.632;2022-07-23T06:00:01;14.13;;;13.20;;
72974;SDS011;61166;54.228;37.632;2022-07-23T06:02:28;14.27;;;13.30;;
72974;SDS011;61166;54.228;37.632;2022-07-23T06:04:54;14.15;;;13.27;;
72974;SDS011;61166;54.228;37.632;2022-07-23T06:07:19;13.93;;;12.83;;
72974;SDS011;61166;54.228;37.632;2022-07-23T06:09:44;13.10;;;12.10;;
72974;SDS011;61166;54.228;37.632;2022-07-23T06:12:11;12.38;;;11.57;;
72974;SDS011;61166;54.228;37.632;2022-07-23T06:14:37;12.80;;;11.80;;
72974;SDS011;61166;54.228;37.632;2022-07-23T06:17:02;13.23;;;12.30;;
72974;SDS011;61166;54.228;37.632;2022-07-23T06:19:28;11.75;;;10.85;;
72974;SDS011;61166;54.228;37.632;2022-07-23T06:21:53;11.90;;;11.20;;
72974;SDS011;61166;54.228;37.632;2022-07-23T06:24:19;14.20;;;13.20;;
72974;SDS011;61166;54.228;37.632;2022-07-23T06:26:44;11.97;;;11.27;;
72974;SDS011;61166;54.228;37.632;2022-07-23T06:29:09;13.27;;;12.37;;
72974;SDS011;61166;54.228;37.632;2022-07-23T06:31:35;12.65;;;11.65;;
72974;SDS011;61166;54.228;37.632;2022-07-23T06:34:00;13.43;;;12.63;;
72974;SDS011;61166;54.228;37.632;2022-07-23T06:36:26;12.43;;;11.63;;
72974;SDS011;61166;54.228;37.632;2022-07-23T06:38:51;10.65;;;9.85;;
72974;SDS011;61166;54.228;37.632;2022-07-23T06:41:17;12.30;;;11.50;;
72974;SDS011;61166;54.228;37.632;2022-07-23T06:43:42;11.57;;;10.63;;
72974;SDS011;61166;54.228;37.632;2022-07-23T06:46:08;10.70;;;9.90;;
72974;SDS011;61166;54.228;37.632;2022-07-23T06:48:33;11.20;;;10.50;;
72974;SDS011;61166;54.228;37.632;2022-07-23T06:51:00;13.02;;;12.23;;
72974;SDS011;61166;54.228;37.632;2022-07-23T06:53:26;10.67;;;9.97;;
72974;SDS011;61166;54.228;37.632;2022-07-23T06:55:52;11.10;;;10.30;;
72974;SDS011;61166;54.228;37.632;2022-07-23T06:58:17;9.20;;;8.60;;
72974;SDS011;61166;54.228;37.632;2022-07-23T07:00:44;11.98;;;11.00;;
72974;SDS011;61166;54.228;37.632;2022-07-23T07:03:09;10.97;;;10.27;;
72974;SDS011;61166;54.228;37.632;2022-07-23T07:05:35;11.37;;;10.67;;
72974;SDS011;61166;54.228;37.632;2022-07-23T07:08:00;13.87;;;12.70;;
72974;SDS011;61166;54.228;37.632;2022-07-23T07:10:26;11.77;;;10.98;;
72974;SDS011;61166;54.228;37.632;2022-07-23T07:12:51;10.87;;;10.13;;
72974;SDS011;61166;54.228;37.632;2022-07-23T07:15:16;13.30;;;12.40;;
72974;SDS011;61166;54.228;37.632;2022-07-23T07:17:42;11.37;;;10.37;;
72974;SDS011;61166;54.228;37.632;2022-07-23T07:20:07;10.50;;;9.70;;
72974;SDS011;61166;54.228;37.632;2022-07-23T07:22:33;9.52;;;8.85;;
72974;SDS011;61166;54.228;37.632;2022-07-23T07:24:59;10.73;;;9.90;;
72974;SDS011;61166;54.228;37.632;2022-07-23T07:27:24;9.43;;;8.83;;
72974;SDS011;61166;54.228;37.632;2022-07-23T07:29:50;9.00;;;8.30;;
72974;SDS011;61166;54.228;37.632;2022-07-23T07:32:15;10.17;;;9.57;;
72974;SDS011;61166;54.228;37.632;2022-07-23T07:34:41;9.35;;;8.75;;
72974;SDS011;61166;54.228;37.632;2022-07-23T07:37:06;9.30;;;8.70;;
72974;SDS011;61166;54.228;37.632;2022-07-23T07:39:31;10.80;;;9.93;;
72974;SDS011;61166;54.228;37.632;2022-07-23T07:41:57;9.53;;;8.80;;
72974;SDS011;61166;54.228;37.632;2022-07-23T07:44:22;8.80;;;8.03;;
72974;SDS011;61166;54.228;37.632;2022-07-23T07:46:47;9.43;;;8.83;;
72974;SDS011;61166;54.228;37.632;2022-07-23T07:49:13;9.60;;;8.70;;
72974;SDS011;61166;54.228;37.632;2022-07-23T07:51:38;8.83;;;8.33;;
72974;SDS011;61166;54.228;37.632;2022-07-23T07:54:04;9.40;;;8.80;;
72974;SDS011;61166;54.228;37.632;2022-07-23T07:56:29;8.15;;;7.38;;
72974;SDS011;61166;54.228;37.632;2022-07-23T07:58:55;8.53;;;7.97;;
72974;SDS011;61166;54.228;37.632;2022-07-23T08:01:20;8.73;;;7.93;;
72974;SDS011;61166;54.228;37.632;2022-07-23T08:03:46;8.40;;;7.47;;
72974;SDS011;61166;54.228;37.632;2022-07-23T08:06:11;9.47;;;8.87;;
72974;SDS011;61166;54.228;37.632;2022-07-23T08:08:37;7.90;;;7.37;;
72974;SDS011;61166;54.228;37.632;2022-07-23T08:11:02;9.63;;;8.93;;
72974;SDS011;61166;54.228;37.632;2022-07-23T08:13:27;7.85;;;7.07;;
72974;SDS011;61166;54.228;37.632;2022-07-23T08:15:53;9.67;;;9.07;;
72974;SDS011;61166;54.228;37.632;2022-07-23T08:18:18;7.70;;;7.00;;
72974;SDS011;61166;54.228;37.632;2022-07-23T08:20:44;8.35;;;7.72;;
72974;SDS011;61166;54.228;37.632;2022-07-23T08:23:09;6.90;;;6.40;;
72974;SDS011;61166;54.228;37.632;2022-07-23T08:25:39;8.40;;;7.70;;
72974;SDS011;61166;54.228;37.632;2022-07-23T08:28:08;7.83;;;7.23;;
72974;SDS011;61166;54.228;37.632;2022-07-23T08:30:36;9.20;;;8.25;;
72974;SDS011;61166;54.228;37.632;2022-07-23T08:33:03;8.55;;;7.95;;
72974;SDS011;61166;54.228;37.632;2022-07-23T08:35:31;9.32;;;8.55;;
72974;SDS011;61166;54.228;37.632;2022-07-23T08:37:59;9.35;;;8.65;;
72974;SDS011;61166;54.228;37.632;2022-07-23T08:40:26;8.50;;;7.70;;
72974;SDS011;61166;54.228;37.632;2022-07-23T08:42:53;8.48;;;7.70;;
72974;SDS011;61166;54.228;37.632;2022-07-23T08:45:20;9.13;;;8.45;;
72974;SDS011;61166;54.228;37.632;2022-07-23T08:47:50;7.28;;;6.70;;
72974;SDS011;61166;54.228;37.632;2022-07-23T08:50:16;7.93;;;7.33;;
72974;SDS011;61166;54.228;37.632;2022-07-23T08:52:42;7.10;;;6.60;;
72974;SDS011;61166;54.228;37.632;2022-07-23T08:55:08;9.20;;;7.50;;
72974;SDS011;61166;54.228;37.632;2022-07-23T08:57:33;8.02;;;7.22;;
72974;SDS011;61166;54.228;37.632;2022-07-23T08:59:59;7.20;;;6.60;;
72974;SDS011;61166;54.228;37.632;2022-07-23T09:02:25;7.87;;;7.23;;
72974;SDS011;61166;54.228;37.632;2022-07-23T09:04:50;8.20;;;7.50;;
72974;SDS011;61166;54.228;37.632;2022-07-23T09:07:15;6.53;;;5.90;;
72974;SDS011;61166;54.228;37.632;2022-07-23T09:09:41;6.73;;;6.03;;
72974;SDS011;61166;54.228;37.632;2022-07-23T09:12:07;6.50;;;5.90;;
72974;SDS011;61166;54.228;37.632;2022-07-23T09:14:44;6.78;;;6.07;;
72974;SDS011;61166;54.228;37.632;2022-07-23T09:17:16;6.50;;;6.00;;
72974;SDS011;61166;54.228;37.632;2022-07-23T09:19:43;7.88;;;7.28;;
72974;SDS011;61166;54.228;37.632;2022-07-23T09:22:16;8.85;;;8.15;;
72974;SDS011;61166;54.228;37.632;2022-07-23T09:25:09;9.07;;;8.18;;
72974;SDS011;61166;54.228;37.632;2022-07-23T09:27:55;8.85;;;8.05;;
72974;SDS011;61166;54.228;37.632;2022-07-23T09:30:23;6.63;;;6.03;;
72974;SDS011;61166;54.228;37.632;2022-07-23T09:35:47;8.90;;;8.10;;
72974;SDS011;61166;54.228;37.632;2022-07-23T09:38:22;7.03;;;6.50;;
72974;SDS011;61166;54.228;37.632;2022-07-23T09:41:31;7.90;;;7.20;;
72974;SDS011;61166;54.228;37.632;2022-07-23T09:43:38;7.60;;;6.93;;
72974;SDS011;61166;54.228;37.632;2022-07-23T09:48:55;8.75;;;7.22;;
72974;SDS011;61166;54.228;37.632;2022-07-23T09:51:22;9.23;;;8.43;;
72974;SDS011;61166;54.228;37.632;2022-07-23T09:53:57;8.02;;;7.32;;
72974;SDS011;61166;54.228;37.632;2022-07-23T09:56:22;8.23;;;7.37;;
72974;SDS011;61166;54.228;37.632;2022-07-23T09:58:49;8.13;;;7.40;;
72974;SDS011;61166;54.228;37.632;2022-07-23T10:01:17;7.47;;;6.85;;
72974;SDS011;61166;54.228;37.632;2022-07-23T10:03:43;7.60;;;7.00;;
72974;SDS011;61166;54.228;37.632;2022-07-23T10:06:09;6.77;;;6.10;;
72974;SDS011;61166;54.228;37.632;2022-07-23T10:08:37;6.82;;;6.22;;
72974;SDS011;61166;54.228;37.632;2022-07-23T10:11:06;6.80;;;6.13;;
72974;SDS011;61166;54.228;37.632;2022-07-23T10:13:32;8.38;;;6.82;;
72974;SDS011;61166;54.228;37.632;2022-07-23T10:15:58;6.60;;;5.90;;
72974;SDS011;61166;54.228;37.632;2022-07-23T10:18:24;7.70;;;6.68;;
72974;SDS011;61166;54.228;37.632;2022-07-23T10:20:50;6.65;;;6.05;;
72974;SDS011;61166;54.228;37.632;2022-07-23T10:23:31;8.13;;;6.50;;
72974;SDS011;61166;54.228;37.632;2022-07-23T10:39:08;6.85;;;6.15;;
72974;SDS011;61166;54.228;37.632;2022-07-23T10:41:39;7.07;;;5.83;;
72974;SDS011;61166;54.228;37.632;2022-07-23T10:44:06;6.97;;;6.38;;
72974;SDS011;61166;54.228;37.632;2022-07-23T10:49:46;6.97;;;6.28;;
72974;SDS011;61166;54.228;37.632;2022-07-23T10:52:22;7.43;;;6.73;;
72974;SDS011;61166;54.228;37.632;2022-07-23T10:54:53;8.02;;;6.75;;
72974;SDS011;61166;54.228;37.632;2022-07-23T10:57:48;7.13;;;6.40;;
72974;SDS011;61166;54.228;37.632;2022-07-23T11:00:16;7.95;;;6.65;;
72974;SDS011;61166;54.228;37.632;2022-07-23T11:02:49;6.90;;;6.20;;
72974;SDS011;61166;54.228;37.632;2022-07-23T11:05:17;7.47;;;6.78;;
72974;SDS011;61166;54.228;37.632;2022-07-23T11:08:27;8.45;;;7.38;;
72974;SDS011;61166;54.228;37.632;2022-07-23T11:32:04;9.10;;;8.20;;
72974;SDS011;61166;54.228;37.632;2022-07-23T11:34:31;9.18;;;8.02;;
72974;SDS011;61166;54.228;37.632;2022-07-23T11:36:57;11.43;;;9.65;;
72974;SDS011;61166;54.228;37.632;2022-07-23T11:39:22;10.80;;;7.40;;
72974;SDS011;61166;54.228;37.632;2022-07-23T11:41:51;8.38;;;7.18;;
72974;SDS011;61166;54.228;37.632;2022-07-23T11:44:24;10.60;;;8.68;;
72974;SDS011;61166;54.228;37.632;2022-07-23T11:47:00;13.38;;;9.70;;
72974;SDS011;61166;54.228;37.632;2022-07-23T11:49:28;8.97;;;8.07;;
72974;SDS011;61166;54.228;37.632;2022-07-23T11:54:36;9.27;;;7.53;;
72974;SDS011;61166;54.228;37.632;2022-07-23T11:57:02;8.23;;;7.07;;
72974;SDS011;61166;54.228;37.632;2022-07-23T11:59:30;11.77;;;8.03;;
72974;SDS011;61166;54.228;37.632;2022-07-23T12:02:01;9.05;;;7.80;;
72974;SDS011;61166;54.228;37.632;2022-07-23T12:04:41;10.07;;;8.10;;
72974;SDS011;61166;54.228;37.632;2022-07-23T12:12:38;8.87;;;7.73;;
72974;SDS011;61166;54.228;37.632;2022-07-23T12:15:06;12.45;;;7.78;;
72974;SDS011;61166;54.228;37.632;2022-07-23T12:17:34;9.40;;;8.50;;
72974;SDS011;61166;54.228;37.632;2022-07-23T12:20:02;8.40;;;7.43;;
72974;SDS011;61166;54.228;37.632;2022-07-23T12:22:42;11.50;;;7.90;;
72974;SDS011;61166;54.228;37.632;2022-07-23T12:25:13;8.80;;;7.90;;
72974;SDS011;61166;54.228;37.632;2022-07-23T12:27:39;11.25;;;8.20;;
72974;SDS011;61166;54.228;37.632;2022-07-23T12:30:23;10.13;;;7.30;;
72974;SDS011;61166;54.228;37.632;2022-07-23T12:32:52;8.70;;;7.80;;
72974;SDS011;61166;54.228;37.632;2022-07-23T12:35:20;9.70;;;8.02;;
72974;SDS011;61166;54.228;37.632;2022-07-23T12:37:47;10.60;;;8.23;;
72974;SDS011;61166;54.228;37.632;2022-07-23T12:43:07;8.63;;;7.82;;
72974;SDS011;61166;54.228;37.632;2022-07-23T12:45:42;10.98;;;7.80;;
72974;SDS011;61166;54.228;37.632;2022-07-23T12:48:31;8.48;;;7.57;;
72974;SDS011;61166;54.228;37.632;2022-07-23T12:51:02;9.48;;;8.48;;
72974;SDS011;61166;54.228;37.632;2022-07-23T12:53:41;10.60;;;7.90;;
72974;SDS011;61166;54.228;37.632;2022-07-23T12:58:42;10.82;;;7.72;;
72974;SDS011;61166;54.228;37.632;2022-07-23T13:09:08;10.23;;;8.15;;
72974;SDS011;61166;54.228;37.632;2022-07-23T13:11:34;9.00;;;8.10;;
72974;SDS011;61166;54.228;37.632;2022-07-23T13:14:00;10.30;;;8.52;;
72974;SDS011;61166;54.228;37.632;2022-07-23T13:16:30;9.80;;;8.52;;
72974;SDS011;61166;54.228;37.632;2022-07-23T13:18:57;9.43;;;8.53;;
72974;SDS011;61166;54.228;37.632;2022-07-23T13:21:23;9.30;;;8.15;;
72974;SDS011;61166;54.228;37.632;2022-07-23T13:23:49;9.75;;;7.70;;
72974;SDS011;61166;54.228;37.632;2022-07-23T13:26:15;8.80;;;7.90;;
72974;SDS011;61166;54.228;37.632;2022-07-23T13:28:40;9.10;;;8.20;;
72974;SDS011;61166;54.228;37.632;2022-07-23T13:31:06;9.40;;;8.13;;
72974;SDS011;61166;54.228;37.632;2022-07-23T13:33:32;10.02;;;7.82;;
72974;SDS011;61166;54.228;37.632;2022-07-23T13:35:58;8.63;;;7.83;;
72974;SDS011;61166;54.228;37.632;2022-07-23T13:38:23;10.83;;;8.17;;
72974;SDS011;61166;54.228;37.632;2022-07-23T13:40:49;9.00;;;7.93;;
72974;SDS011;61166;54.228;37.632;2022-07-23T13:43:17;8.40;;;7.60;;
72974;SDS011;61166;54.228;37.632;2022-07-23T13:45:44;10.23;;;8.00;;
72974;SDS011;61166;54.228;37.632;2022-07-23T13:48:10;10.05;;;8.45;;
72974;SDS011;61166;54.228;37.632;2022-07-23T13:50:37;10.82;;;7.63;;
72974;SDS011;61166;54.228;37.632;2022-07-23T13:53:05;12.65;;;8.30;;
72974;SDS011;61166;54.228;37.632;2022-07-23T13:55:33;8.47;;;7.57;;
72974;SDS011;61166;54.228;37.632;2022-07-23T13:57:59;9.52;;;8.10;;
72974;SDS011;61166;54.228;37.632;2022-07-23T14:00:25;9.23;;;8.02;;
72974;SDS011;61166;54.228;37.632;2022-07-23T14:02:51;8.90;;;7.53;;
72974;SDS011;61166;54.228;37.632;2022-07-23T14:05:17;11.48;;;7.32;;
72974;SDS011;61166;54.228;37.632;2022-07-23T14:07:43;8.17;;;6.90;;
72974;SDS011;61166;54.228;37.632;2022-07-23T14:10:10;8.45;;;6.30;;
72974;SDS011;61166;54.228;37.632;2022-07-23T14:12:36;8.13;;;6.87;;
72974;SDS011;61166;54.228;37.632;2022-07-23T14:15:02;9.27;;;7.40;;
72974;SDS011;61166;54.228;37.632;2022-07-23T14:17:29;9.02;;;7.00;;
72974;SDS011;61166;54.228;37.632;2022-07-23T14:19:54;7.73;;;6.93;;
72974;SDS011;61166;54.228;37.632;2022-07-23T14:22:19;10.60;;;7.50;;
72974;SDS011;61166;54.228;37.632;2022-07-23T14:24:45;8.83;;;7.83;;
72974;SDS011;61166;54.228;37.632;2022-07-23T14:27:10;9.00;;;8.07;;
72974;SDS011;61166;54.228;37.632;2022-07-23T14:29:36;8.10;;;6.97;;
72974;SDS011;61166;54.228;37.632;2022-07-23T14:32:01;10.13;;;7.90;;
72974;SDS011;61166;54.228;37.632;2022-07-23T14:34:28;11.20;;;7.70;;
72974;SDS011;61166;54.228;37.632;2022-07-23T14:36:53;10.20;;;7.45;;
72974;SDS011;61166;54.228;37.632;2022-07-23T14:39:19;10.27;;;7.47;;
72974;SDS011;61166;54.228;37.632;2022-07-23T14:41:51;11.13;;;8.07;;
72974;SDS011;61166;54.228;37.632;2022-07-23T14:44:17;9.23;;;8.20;;
72974;SDS011;61166;54.228;37.632;2022-07-23T14:46:42;12.67;;;8.60;;
72974;SDS011;61166;54.228;37.632;2022-07-23T14:49:08;9.03;;;8.13;;
72974;SDS011;61166;54.228;37.632;2022-07-23T14:51:33;8.45;;;7.55;;
72974;SDS011;61166;54.228;37.632;2022-07-23T14:53:59;8.57;;;7.77;;
72974;SDS011;61166;54.228;37.632;2022-07-23T14:56:24;8.98;;;8.07;;
72974;SDS011;61166;54.228;37.632;2022-07-23T14:58:50;9.23;;;7.90;;
72974;SDS011;61166;54.228;37.632;2022-07-23T15:01:15;8.77;;;7.73;;
72974;SDS011;61166;54.228;37.632;2022-07-23T15:03:41;8.77;;;7.87;;
72974;SDS011;61166;54.228;37.632;2022-07-23T15:06:06;10.60;;;8.25;;
72974;SDS011;61166;54.228;37.632;2022-07-23T15:08:32;9.10;;;7.77;;
72974;SDS011;61166;54.228;37.632;2022-07-23T15:10:57;9.33;;;7.53;;
72974;SDS011;61166;54.228;37.632;2022-07-23T15:13:23;8.88;;;7.45;;
72974;SDS011;61166;54.228;37.632;2022-07-23T15:15:48;7.97;;;7.17;;
72974;SDS011;61166;54.228;37.632;2022-07-23T15:18:14;8.77;;;7.27;;
72974;SDS011;61166;54.228;37.632;2022-07-23T15:20:40;9.27;;;8.25;;
72974;SDS011;61166;54.228;37.632;2022-07-23T15:23:05;9.53;;;8.53;;
72974;SDS011;61166;54.228;37.632;2022-07-23T15:25:31;10.30;;;7.95;;